Terminal Aerodrome Forecast
Issued by NWS Buffalo, NY

Current Version | Previous Version | Text Only | Print | Product List | Glossary On
Versions: 1 2 3 4 5 6 7 8 9 10 11 12 13 14 15 16 17 18 19 20 21 22 23 24 25 26
000
FTUS41 KBUF 291507 AAB
TAFBUF
TAF AMD
KBUF 291507Z 2915/3012 06013KT P6SM VCSH BKN015
      TEMPO 2915/2918 BKN009
     FM292200 08012G20KT P6SM VCSH OVC025
     FM300000 08011G18KT P6SM OVC025
     FM300200 08011KT P6SM OVC050
     FM301100 09010G16KT P6SM BKN110=

USA.gov is the U.S. government's official web portal to all federal, state and local government web resources and services.